Time;durP1;ratioP1;P1;durP2;ratioP2;P2;SDS_P1;SDS_P2;PMS_P1;PMS_P2;Temp;Humidity;BMP_temperature;BMP_pressure;BME280_temperature;BME280_humidity;BME280_pressure;Samples;Min_cycle;Max_cycle;Signal;HPM_P1;HPM_P2
2023/01/22 00:01:12;;;;;;;7.53;4.93;;;1.70;99.90;;;;;;5075672;28;20396;-63
2023/01/22 00:03:39;;;;;;;5.82;4.15;;;1.70;99.90;;;;;;5092446;28;20035;-63
2023/01/22 00:06:05;;;;;;;5.93;4.40;;;1.70;99.90;;;;;;5074845;28;20503;-63
2023/01/22 00:08:31;;;;;;;11.50;4.53;;;1.60;99.90;;;;;;5092452;28;20052;-61
2023/01/22 00:10:57;;;;;;;13.00;4.35;;;1.60;99.90;;;;;;5092495;28;20031;-59
2023/01/22 00:13:24;;;;;;;13.95;5.15;;;1.60;99.90;;;;;;5092127;28;20032;-63
2023/01/22 00:15:51;;;;;;;6.63;4.22;;;1.60;99.90;;;;;;5074468;28;20522;-60
2023/01/22 00:18:17;;;;;;;14.85;4.95;;;1.60;99.90;;;;;;5090925;28;20449;-60
2023/01/22 00:20:51;;;;;;;11.13;4.88;;;1.60;99.90;;;;;;5092123;28;20428;-58
2023/01/22 00:23:17;;;;;;;11.55;5.40;;;1.50;99.90;;;;;;5073937;28;20157;-61
2023/01/22 00:25:43;;;;;;;8.40;5.43;;;1.50;99.90;;;;;;5092267;28;20466;-60
2023/01/22 00:28:10;;;;;;;16.08;5.82;;;1.50;99.90;;;;;;5092517;28;20048;-60
2023/01/22 00:30:36;;;;;;;9.98;6.45;;;1.50;99.90;;;;;;5092134;28;20028;-61
2023/01/22 00:33:01;;;;;;;16.33;5.43;;;1.50;99.90;;;;;;5090088;28;20491;-62
2023/01/22 00:35:27;;;;;;;15.23;6.00;;;1.60;99.90;;;;;;5071856;28;20028;-61
2023/01/22 00:37:53;;;;;;;7.97;5.82;;;1.60;99.90;;;;;;5071814;28;20029;-63
2023/01/22 00:40:18;;;;;;;11.25;5.90;;;1.50;99.90;;;;;;5071901;28;20013;-63
2023/01/22 00:42:44;;;;;;;14.65;6.63;;;1.50;99.90;;;;;;5071436;28;20108;-62
2023/01/22 00:45:12;;;;;;;13.63;6.38;;;1.50;99.90;;;;;;5066112;28;20032;-62
2023/01/22 00:47:38;;;;;;;14.10;6.03;;;1.50;99.90;;;;;;5091452;28;20032;-59
2023/01/22 00:50:04;;;;;;;11.27;6.63;;;1.60;99.90;;;;;;5091767;28;20536;-61
2023/01/22 00:52:30;;;;;;;11.07;6.57;;;1.50;99.90;;;;;;5091764;28;20085;-63
2023/01/22 00:54:56;;;;;;;13.88;6.25;;;1.50;99.90;;;;;;5073972;28;20020;-62
2023/01/22 00:57:21;;;;;;;22.33;6.68;;;1.50;99.90;;;;;;5091950;28;20508;-61
2023/01/22 00:59:47;;;;;;;10.35;6.30;;;1.60;99.90;;;;;;5073401;28;20035;-60
2023/01/22 01:02:14;;;;;;;16.83;6.25;;;1.50;99.90;;;;;;5071217;28;20138;-62
2023/01/22 01:04:40;;;;;;;9.40;5.28;;;1.50;99.90;;;;;;5071271;28;20400;-63
2023/01/22 01:07:06;;;;;;;9.05;6.30;;;1.50;99.90;;;;;;5071412;28;20021;-58
2023/01/22 01:09:32;;;;;;;16.25;7.97;;;1.50;99.90;;;;;;5071007;28;20020;-63
2023/01/22 01:11:59;;;;;;;8.80;6.68;;;1.50;99.90;;;;;;5071224;28;20186;-63
2023/01/22 01:14:25;;;;;;;19.13;7.65;;;1.60;99.90;;;;;;5080305;28;20032;-61
2023/01/22 01:16:51;;;;;;;10.95;6.97;;;1.50;99.90;;;;;;5091888;28;20032;-62
2023/01/22 01:19:19;;;;;;;14.25;7.53;;;1.50;99.90;;;;;;5091931;28;20533;-61
2023/01/22 01:21:45;;;;;;;13.00;6.20;;;1.50;99.90;;;;;;5092091;28;20123;-62
2023/01/22 01:24:11;;;;;;;14.45;6.55;;;1.50;99.90;;;;;;5091613;28;20032;-63
2023/01/22 01:26:39;;;;;;;8.25;7.22;;;1.50;99.90;;;;;;5091949;28;20043;-63
2023/01/22 01:29:06;;;;;;;10.40;6.65;;;1.50;99.90;;;;;;5075547;28;20032;-60
2023/01/22 01:31:32;;;;;;;10.00;6.20;;;1.50;99.90;;;;;;5071237;28;20037;-59
2023/01/22 01:33:58;;;;;;;9.50;6.32;;;1.50;99.90;;;;;;5071288;28;20031;-61
2023/01/22 01:36:25;;;;;;;9.13;6.20;;;2.10;99.90;;;;;;5071698;28;20112;-61
2023/01/22 01:38:51;;;;;;;10.85;5.85;;;1.50;99.90;;;;;;5071451;28;20037;-59
2023/01/22 01:41:20;;;;;;;13.68;7.25;;;1.50;99.90;;;;;;5071141;28;20119;-61
2023/01/22 01:44:04;;;;;;;14.20;8.05;;;1.50;99.90;;;;;;5071128;28;20043;-58
2023/01/22 01:46:31;;;;;;;7.85;6.07;;;1.60;99.90;;;;;;5077783;28;20205;-59
2023/01/22 01:48:57;;;;;;;7.03;6.03;;;1.60;99.90;;;;;;5080754;28;20040;-62
2023/01/22 01:51:26;;;;;;;9.85;6.07;;;1.50;99.90;;;;;;5070923;28;20047;-57
2023/01/22 01:53:53;;;;;;;13.13;5.47;;;1.50;99.90;;;;;;5071047;28;20031;-61
2023/01/22 01:56:28;;;;;;;6.88;5.28;;;1.50;99.90;;;;;;5071249;28;20055;-61
2023/01/22 01:58:59;;;;;;;13.27;6.30;;;1.50;99.90;;;;;;5070836;28;20102;-59
2023/01/22 02:01:26;;;;;;;7.22;5.35;;;1.50;99.90;;;;;;5079667;28;20103;-62
2023/01/22 02:03:52;;;;;;;8.40;7.22;;;1.60;99.90;;;;;;5090689;28;20028;-63
2023/01/22 02:06:19;;;;;;;8.48;5.10;;;1.50;99.90;;;;;;5090943;28;20024;-63
2023/01/22 02:08:47;;;;;;;11.25;6.10;;;1.50;99.90;;;;;;5090750;28;20032;-61
2023/01/22 02:11:14;;;;;;;12.45;5.18;;;1.50;99.90;;;;;;5090803;28;20028;-61
2023/01/22 02:14:03;;;;;;;9.70;5.10;;;1.50;99.90;;;;;;5090504;28;20039;-63
2023/01/22 02:16:29;;;;;;;6.80;5.68;;;1.50;99.90;;;;;;5039220;28;20581;-62
2023/01/22 02:18:54;;;;;;;7.07;5.93;;;1.50;99.90;;;;;;5071093;28;20071;-63
2023/01/22 02:23:55;;;;;;;10.45;4.85;;;1.50;99.90;;;;;;5093916;22;20134;-63
2023/01/22 02:26:20;;;;;;;9.27;5.20;;;1.50;99.90;;;;;;5073658;28;20075;-63
2023/01/22 02:28:46;;;;;;;9.10;6.35;;;1.50;99.90;;;;;;5074368;28;20036;-66
2023/01/22 02:31:12;;;;;;;6.13;5.05;;;1.50;99.90;;;;;;5074336;28;20493;-62
2023/01/22 02:33:37;;;;;;;10.73;5.82;;;1.50;99.90;;;;;;5082513;28;20020;-60
2023/01/22 02:36:03;;;;;;;7.57;5.13;;;1.50;99.90;;;;;;5094784;28;20468;-63
2023/01/22 02:38:29;;;;;;;7.35;4.40;;;1.50;99.90;;;;;;5095475;28;20024;-63
2023/01/22 02:40:54;;;;;;;8.40;4.55;;;1.50;99.90;;;;;;5095925;28;20048;-61
2023/01/22 02:43:20;;;;;;;5.57;4.70;;;1.50;99.90;;;;;;5094983;28;20553;-62
2023/01/22 02:45:46;;;;;;;6.45;5.03;;;1.50;99.90;;;;;;5094887;28;20054;-62
2023/01/22 02:48:11;;;;;;;11.38;5.80;;;1.50;99.90;;;;;;5093892;28;20065;-65
2023/01/22 02:50:37;;;;;;;9.30;4.95;;;1.50;99.90;;;;;;5093805;28;20032;-67
2023/01/22 02:53:03;;;;;;;5.22;4.78;;;1.50;99.90;;;;;;5093743;28;20068;-62
2023/01/22 02:55:29;;;;;;;5.75;3.75;;;1.50;99.90;;;;;;5094090;28;20028;-63
2023/01/22 02:57:55;;;;;;;5.22;4.10;;;1.50;99.90;;;;;;5093948;28;20571;-62
2023/01/22 03:00:20;;;;;;;6.82;4.22;;;1.50;99.90;;;;;;5093951;28;20028;-63
2023/01/22 03:02:46;;;;;;;6.18;3.67;;;1.50;99.90;;;;;;5093668;28;20031;-64
2023/01/22 03:05:11;;;;;;;5.85;4.55;;;1.50;99.90;;;;;;5094033;28;20153;-63
2023/01/22 03:07:46;;;;;;;6.55;4.60;;;1.50;99.90;;;;;;5093618;28;20376;-61
2023/01/22 03:10:17;;;;;;;4.28;3.42;;;1.50;99.90;;;;;;5093906;28;20510;-66
2023/01/22 03:21:13;;;;;;;5.55;5.03;;;1.50;99.90;;;;;;5094199;28;20035;-63
2023/01/22 03:23:39;;;;;;;3.95;3.33;;;1.50;99.90;;;;;;5092817;28;20028;-65
2023/01/22 03:26:05;;;;;;;4.93;4.40;;;1.50;99.90;;;;;;5093968;28;20019;-62
2023/01/22 03:28:31;;;;;;;4.88;3.85;;;1.50;99.90;;;;;;5093848;28;20034;-66
2023/01/22 03:30:57;;;;;;;6.10;3.95;;;1.50;99.90;;;;;;5093426;28;20116;-68
2023/01/22 03:33:23;;;;;;;7.13;4.53;;;1.50;99.90;;;;;;5093222;28;20028;-63
2023/01/22 03:35:49;;;;;;;7.75;4.15;;;1.50;99.90;;;;;;5093028;28;20038;-64
2023/01/22 03:38:14;;;;;;;6.28;4.57;;;1.50;99.90;;;;;;5093323;28;20115;-63
2023/01/22 03:40:40;;;;;;;4.90;4.40;;;1.50;99.90;;;;;;5092894;28;20036;-61
2023/01/22 03:43:06;;;;;;;7.90;4.40;;;1.40;99.90;;;;;;5092548;28;20039;-64
2023/01/22 03:45:32;;;;;;;4.57;3.53;;;1.50;99.90;;;;;;5093361;28;20036;-64
2023/01/22 03:47:58;;;;;;;4.25;3.78;;;1.60;99.90;;;;;;5093337;28;20438;-65
2023/01/22 03:50:24;;;;;;;5.55;4.55;;;1.50;99.90;;;;;;5093055;28;20020;-65
2023/01/22 03:52:49;;;;;;;7.25;5.15;;;1.50;99.90;;;;;;5074680;28;20684;-58
2023/01/22 03:55:15;;;;;;;6.22;4.68;;;1.40;99.90;;;;;;5092713;28;20028;-62
2023/01/22 03:57:41;;;;;;;4.78;4.28;;;1.50;99.90;;;;;;5092694;28;20089;-64
2023/01/22 04:00:08;;;;;;;7.28;5.07;;;1.50;99.90;;;;;;5093109;28;20062;-64
2023/01/22 04:02:33;;;;;;;5.57;4.65;;;1.50;99.90;;;;;;5092673;28;20099;-64
2023/01/22 04:04:59;;;;;;;5.47;4.97;;;1.60;99.90;;;;;;5092863;28;20552;-63
2023/01/22 04:07:25;;;;;;;5.72;4.72;;;2.00;99.90;;;;;;5092692;28;20034;-64
2023/01/22 04:09:51;;;;;;;6.68;5.07;;;1.40;99.90;;;;;;5092520;28;20052;-63
2023/01/22 04:12:17;;;;;;;4.90;4.35;;;1.40;99.90;;;;;;5092017;28;20028;-62
2023/01/22 04:14:43;;;;;;;6.57;5.13;;;1.40;99.90;;;;;;5092554;28;20070;-63
2023/01/22 04:17:09;;;;;;;5.10;4.47;;;3.00;99.90;;;;;;5092797;28;20028;-61
2023/01/22 04:19:34;;;;;;;7.70;5.80;;;1.40;99.90;;;;;;5090726;28;20111;-61
2023/01/22 04:22:00;;;;;;;5.82;5.22;;;1.50;99.90;;;;;;5103576;28;20118;-67
2023/01/22 04:24:25;;;;;;;7.05;6.35;;;1.50;99.90;;;;;;5112739;28;20034;-64
2023/01/22 04:26:51;;;;;;;6.25;5.65;;;1.50;99.90;;;;;;5112849;28;20053;-63
2023/01/22 04:29:17;;;;;;;6.35;5.47;;;1.50;99.90;;;;;;5098707;28;20035;-63
2023/01/22 04:31:43;;;;;;;6.82;6.22;;;1.50;99.90;;;;;;5091964;28;20036;-60
2023/01/22 04:34:09;;;;;;;6.38;5.78;;;1.50;99.90;;;;;;5092642;28;20020;-61
2023/01/22 04:36:35;;;;;;;5.55;5.00;;;1.50;99.90;;;;;;5092351;28;20020;-62
2023/01/22 04:39:01;;;;;;;5.90;4.68;;;1.50;99.90;;;;;;5092303;28;20024;-64
2023/01/22 04:41:26;;;;;;;5.15;4.65;;;1.70;99.90;;;;;;5091633;28;20109;-63
2023/01/22 04:43:52;;;;;;;5.78;5.28;;;1.50;99.90;;;;;;5091611;28;20387;-66
2023/01/22 04:46:17;;;;;;;7.03;5.25;;;1.50;99.90;;;;;;5092148;28;20024;-62
2023/01/22 04:48:45;;;;;;;6.13;5.60;;;1.50;99.90;;;;;;5091250;28;20120;-64
2023/01/22 04:51:10;;;;;;;6.45;5.25;;;1.50;99.90;;;;;;5091650;28;20054;-64
2023/01/22 04:53:36;;;;;;;5.95;5.45;;;1.50;99.90;;;;;;5091251;28;20104;-63
2023/01/22 04:56:02;;;;;;;8.15;5.47;;;1.50;99.90;;;;;;5091575;28;20038;-61
2023/01/22 04:58:28;;;;;;;6.50;5.93;;;1.50;99.90;;;;;;5091931;28;20540;-63
2023/01/22 05:00:55;;;;;;;7.18;6.05;;;1.50;99.90;;;;;;5092016;28;20081;-63
2023/01/22 05:03:21;;;;;;;6.68;5.85;;;1.50;99.90;;;;;;5091416;28;20032;-64
2023/01/22 05:05:46;;;;;;;5.45;4.95;;;1.50;99.90;;;;;;5091640;28;20620;-64
2023/01/22 05:08:12;;;;;;;6.72;6.10;;;1.50;99.90;;;;;;5091697;28;20150;-63
2023/01/22 05:10:38;;;;;;;6.25;5.72;;;1.80;99.90;;;;;;5091625;28;20495;-64
2023/01/22 05:13:05;;;;;;;9.05;6.00;;;1.50;99.90;;;;;;5091062;28;20062;-60
2023/01/22 05:15:31;;;;;;;5.85;5.25;;;1.50;99.90;;;;;;5091357;28;20012;-63
2023/01/22 05:17:57;;;;;;;6.97;6.28;;;1.50;99.90;;;;;;5091432;28;20021;-63
2023/01/22 05:20:24;;;;;;;8.35;6.82;;;1.40;99.90;;;;;;5091588;28;20051;-67
2023/01/22 05:22:50;;;;;;;8.50;6.35;;;1.40;99.90;;;;;;5090880;28;20071;-66
2023/01/22 05:25:15;;;;;;;8.63;7.20;;;1.40;99.90;;;;;;5091359;28;20510;-63
2023/01/22 05:27:42;;;;;;;7.95;7.22;;;1.40;99.90;;;;;;5091047;28;20413;-64
2023/01/22 05:30:08;;;;;;;9.80;7.78;;;1.40;99.90;;;;;;5091222;28;20035;-63
2023/01/22 05:32:34;;;;;;;9.10;8.20;;;1.40;99.90;;;;;;5090514;28;20024;-65
2023/01/22 05:35:00;;;;;;;8.68;7.78;;;1.50;99.90;;;;;;5091300;28;20030;-63
2023/01/22 05:37:25;;;;;;;8.95;7.78;;;2.00;99.90;;;;;;5091247;28;20028;-63
2023/01/22 05:39:51;;;;;;;9.43;8.45;;;1.50;99.90;;;;;;5073140;28;20109;-63
2023/01/22 05:42:16;;;;;;;8.18;7.15;;;1.40;99.90;;;;;;5090952;28;20441;-65
2023/01/22 05:44:42;;;;;;;9.57;8.38;;;1.40;99.90;;;;;;5090782;28;20515;-64
2023/01/22 05:47:11;;;;;;;9.65;8.57;;;1.40;99.90;;;;;;5090968;28;20027;-62
2023/01/22 05:49:36;;;;;;;9.10;8.18;;;1.40;99.90;;;;;;5091183;28;20020;-62
2023/01/22 05:52:02;;;;;;;9.32;8.43;;;1.40;99.90;;;;;;5090593;28;20077;-61
2023/01/22 05:54:28;;;;;;;10.57;9.30;;;1.40;99.90;;;;;;5091047;28;20111;-62
2023/01/22 05:56:53;;;;;;;14.30;10.25;;;1.40;99.90;;;;;;5072921;28;20031;-64
2023/01/22 05:59:19;;;;;;;10.82;9.10;;;1.40;99.90;;;;;;5092491;28;20024;-65
2023/01/22 06:01:44;;;;;;;10.98;7.93;;;1.40;99.90;;;;;;5094857;28;20052;-63
2023/01/22 06:04:10;;;;;;;9.32;8.52;;;1.40;99.90;;;;;;5094811;28;20069;-62
2023/01/22 06:06:36;;;;;;;9.48;8.13;;;1.40;99.90;;;;;;5095365;28;20400;-61
2023/01/22 06:09:01;;;;;;;10.80;8.60;;;1.40;99.90;;;;;;5095131;28;20039;-62
2023/01/22 06:11:27;;;;;;;9.27;8.38;;;1.30;99.90;;;;;;5094085;28;20055;-64
2023/01/22 06:13:53;;;;;;;12.00;9.73;;;1.40;99.90;;;;;;5094568;28;20080;-64
2023/01/22 06:16:19;;;;;;;16.00;9.68;;;1.40;99.90;;;;;;5094857;28;20073;-62
2023/01/22 06:18:44;;;;;;;12.32;10.02;;;1.40;99.90;;;;;;5094561;28;20039;-62
2023/01/22 06:21:10;;;;;;;16.13;9.73;;;1.40;99.90;;;;;;5094829;28;20035;-67
2023/01/22 06:23:35;;;;;;;16.00;10.05;;;1.40;99.90;;;;;;5094254;28;20081;-63
2023/01/22 06:26:07;;;;;;;20.12;9.74;;;1.40;99.90;;;;;;4959735;28;10000506;-61
2023/01/22 06:28:33;;;;;;;11.57;10.10;;;2.10;99.90;;;;;;5091688;28;20244;-62
2023/01/22 06:31:04;;;;;;;11.55;10.15;;;1.40;99.90;;;;;;5091353;28;20127;-66
2023/01/22 06:33:32;;;;;;;11.98;10.77;;;1.30;99.90;;;;;;5091514;28;20048;-64
2023/01/22 06:35:58;;;;;;;11.77;10.57;;;1.40;99.90;;;;;;5091361;28;20024;-62
2023/01/22 06:38:23;;;;;;;16.25;10.35;;;1.40;99.90;;;;;;5091492;28;20035;-66
2023/01/22 06:40:53;;;;;;;13.80;9.95;;;1.40;99.90;;;;;;5091415;28;20028;-64
2023/01/22 06:43:19;;;;;;;16.10;11.85;;;1.40;99.90;;;;;;5091209;28;20051;-64
2023/01/22 06:45:45;;;;;;;13.93;10.70;;;1.30;99.90;;;;;;5091517;28;20468;-66
2023/01/22 06:48:11;;;;;;;15.05;10.40;;;1.30;99.90;;;;;;5091199;28;20032;-63
2023/01/22 06:50:36;;;;;;;11.15;10.13;;;1.30;99.90;;;;;;5091144;28;20020;-66
2023/01/22 06:53:02;;;;;;;15.07;9.52;;;1.30;99.90;;;;;;5091214;28;20569;-65
2023/01/22 06:55:27;;;;;;;14.07;10.63;;;1.50;99.90;;;;;;5074996;28;20385;-66
2023/01/22 06:57:54;;;;;;;12.10;10.32;;;1.40;99.90;;;;;;5092869;28;20028;-64
2023/01/22 07:00:20;;;;;;;13.18;10.18;;;1.40;99.90;;;;;;5093134;28;20028;-66
2023/01/22 07:02:46;;;;;;;11.35;10.25;;;1.40;99.90;;;;;;5094110;28;20035;-64
2023/01/22 07:05:14;;;;;;;10.70;9.70;;;1.40;99.90;;;;;;4741632;28;10000326;-64
2023/01/22 07:07:43;;;;;;;16.50;11.35;;;1.50;99.90;;;;;;5093553;28;20052;-67
2023/01/22 07:10:09;;;;;;;12.85;11.55;;;1.30;99.90;;;;;;5091725;28;20032;-65
2023/01/22 07:12:35;;;;;;;16.83;11.65;;;1.30;99.90;;;;;;5092793;28;20056;-64
2023/01/22 07:15:00;;;;;;;14.48;11.27;;;1.30;99.90;;;;;;5092483;28;20436;-67
2023/01/22 07:17:26;;;;;;;14.48;11.55;;;1.40;99.90;;;;;;5093611;28;20020;-60
2023/01/22 07:19:52;;;;;;;12.23;10.73;;;1.40;99.90;;;;;;5094077;28;20016;-63
2023/01/22 07:22:17;;;;;;;15.48;10.88;;;1.40;99.90;;;;;;5093316;28;20020;-63
2023/01/22 07:24:43;;;;;;;12.30;11.10;;;1.40;99.90;;;;;;5093978;28;20042;-63
2023/01/22 07:27:08;;;;;;;12.85;11.50;;;1.50;99.90;;;;;;5093722;28;20040;-59
2023/01/22 07:29:34;;;;;;;12.38;10.95;;;1.40;99.90;;;;;;5093679;28;20488;-63
2023/01/22 07:32:00;;;;;;;17.13;12.52;;;1.70;99.90;;;;;;5093157;28;20074;-68
2023/01/22 07:34:25;;;;;;;16.25;11.15;;;1.50;99.90;;;;;;5093840;28;20024;-65
2023/01/22 07:36:52;;;;;;;12.98;11.73;;;2.20;99.90;;;;;;5093741;28;20024;-64
2023/01/22 07:39:17;;;;;;;15.77;12.52;;;1.50;99.90;;;;;;5093511;28;20024;-66
2023/01/22 07:41:43;;;;;;;12.32;11.05;;;2.10;99.90;;;;;;5093471;28;20042;-62
2023/01/22 07:44:12;;;;;;;13.07;11.02;;;1.50;99.90;;;;;;5093207;28;20467;-64
2023/01/22 07:46:38;;;;;;;12.30;11.10;;;1.50;99.90;;;;;;5093200;28;20122;-64
2023/01/22 07:49:05;;;;;;;11.85;10.75;;;1.50;99.90;;;;;;5093056;28;20472;-66
2023/01/22 07:51:30;;;;;;;13.75;11.57;;;1.50;99.90;;;;;;5093058;28;20391;-63
2023/01/22 07:53:56;;;;;;;13.40;10.55;;;1.60;99.90;;;;;;5092819;28;20017;-68
2023/01/22 07:56:22;;;;;;;11.70;10.18;;;1.60;99.90;;;;;;5093075;28;20024;-63
2023/01/22 07:58:47;;;;;;;19.55;11.60;;;1.50;99.90;;;;;;5092931;28;20031;-63
2023/01/22 08:01:13;;;;;;;10.55;9.55;;;1.50;99.90;;;;;;5092654;28;20040;-63
2023/01/22 08:03:39;;;;;;;12.30;10.65;;;1.60;99.90;;;;;;5092361;28;20024;-64
2023/01/22 08:06:09;;;;;;;10.60;9.50;;;1.60;99.90;;;;;;5092928;28;20032;-63
2023/01/22 08:08:35;;;;;;;11.57;10.35;;;1.60;99.90;;;;;;5092671;28;20035;-61
2023/01/22 08:11:00;;;;;;;12.13;9.50;;;1.60;99.90;;;;;;5092711;28;20024;-61
2023/01/22 08:13:26;;;;;;;12.45;10.60;;;1.60;99.90;;;;;;5092201;28;20040;-58
2023/01/22 08:15:53;;;;;;;11.32;8.55;;;1.60;99.90;;;;;;5092466;28;20115;-62
2023/01/22 08:18:19;;;;;;;12.13;10.75;;;1.90;99.90;;;;;;5092784;28;20077;-63
2023/01/22 08:20:45;;;;;;;10.52;9.45;;;1.70;99.90;;;;;;5093475;28;20438;-59
2023/01/22 08:23:10;;;;;;;9.75;8.82;;;1.70;99.90;;;;;;5112189;22;20040;-63
2023/01/22 08:25:36;;;;;;;9.00;8.20;;;1.70;99.90;;;;;;5092778;28;20021;-62
2023/01/22 08:28:03;;;;;;;10.02;8.50;;;1.80;99.90;;;;;;5091825;28;20058;-61
2023/01/22 08:30:30;;;;;;;12.30;10.27;;;1.70;99.90;;;;;;5092721;28;20424;-62
2023/01/22 08:32:56;;;;;;;10.25;9.23;;;2.40;99.90;;;;;;4377001;28;10000835;-62
2023/01/22 08:35:22;;;;;;;10.13;9.13;;;1.70;99.90;;;;;;5049580;28;20329;-63
2023/01/22 08:37:47;;;;;;;14.48;11.90;;;1.70;99.90;;;;;;5049714;28;20033;-62
2023/01/22 08:40:13;;;;;;;10.65;9.55;;;2.20;99.90;;;;;;5050038;28;20104;-63
2023/01/22 08:42:39;;;;;;;11.52;10.02;;;1.80;99.90;;;;;;5050181;28;20021;-64
2023/01/22 08:45:07;;;;;;;10.77;8.23;;;1.80;99.90;;;;;;5049061;28;20037;-63
2023/01/22 08:47:32;;;;;;;10.00;9.00;;;1.80;99.90;;;;;;5049265;28;20063;-64
2023/01/22 08:50:00;;;;;;;11.10;9.38;;;1.80;99.90;;;;;;5048939;28;20454;-62
2023/01/22 08:52:26;;;;;;;11.25;9.82;;;1.80;99.90;;;;;;5030559;28;20049;-62
2023/01/22 08:54:51;;;;;;;14.30;10.18;;;1.90;99.90;;;;;;5048597;28;20079;-63
2023/01/22 08:57:17;;;;;;;11.10;9.68;;;1.80;99.90;;;;;;5063436;28;20024;-64
2023/01/22 08:59:43;;;;;;;14.00;10.15;;;1.90;99.90;;;;;;5068488;28;20115;-63
2023/01/22 09:02:12;;;;;;;14.55;11.50;;;1.90;99.90;;;;;;5068057;28;20043;-63
2023/01/22 09:04:39;;;;;;;12.25;10.20;;;1.90;99.90;;;;;;5068375;28;20062;-62
2023/01/22 09:07:04;;;;;;;16.10;9.82;;;2.00;99.90;;;;;;5068189;28;20502;-63
2023/01/22 09:09:30;;;;;;;12.18;10.30;;;2.20;99.90;;;;;;5068318;28;20025;-63
2023/01/22 09:11:56;;;;;;;12.10;10.82;;;2.00;99.90;;;;;;5048844;28;20021;-63
2023/01/22 09:14:21;;;;;;;16.17;11.88;;;2.10;99.90;;;;;;5047741;28;20029;-63
2023/01/22 09:16:47;;;;;;;13.93;11.00;;;2.10;99.90;;;;;;5048653;28;20769;-63
2023/01/22 09:19:13;;;;;;;18.65;10.93;;;2.20;99.90;;;;;;5048059;28;20032;-65
2023/01/22 09:21:39;;;;;;;13.93;10.80;;;2.20;99.90;;;;;;5048542;28;20116;-63
2023/01/22 09:24:06;;;;;;;13.73;10.68;;;2.20;99.90;;;;;;5051540;28;20032;-63
2023/01/22 09:26:32;;;;;;;12.60;11.00;;;2.20;99.90;;;;;;5068014;28;20500;-63
2023/01/22 09:29:03;;;;;;;11.85;10.60;;;2.20;99.90;;;;;;5068036;28;20044;-64
2023/01/22 09:31:29;;;;;;;11.10;10.00;;;2.20;99.90;;;;;;5068118;28;20028;-64
2023/01/22 09:33:54;;;;;;;12.40;10.50;;;2.20;99.90;;;;;;5052506;28;20586;-63
2023/01/22 09:36:20;;;;;;;14.80;10.93;;;2.10;99.90;;;;;;5047869;28;20389;-63
2023/01/22 09:38:46;;;;;;;14.57;11.32;;;2.10;99.90;;;;;;5057051;28;20493;-63
2023/01/22 09:41:26;;;;;;;11.43;10.18;;;2.30;99.90;;;;;;5068278;28;20042;-63
2023/01/22 09:43:54;;;;;;;13.27;11.27;;;2.50;99.90;;;;;;5067579;28;20058;-64
2023/01/22 09:46:38;;;;;;;14.07;12.13;;;2.20;99.90;;;;;;5067730;28;20035;-64
2023/01/22 09:50:17;;;;;;;12.05;10.48;;;2.20;99.90;;;;;;5068107;28;20032;-63
2023/01/22 09:52:43;;;;;;;11.68;9.82;;;2.20;99.90;;;;;;4930499;28;20028;-63
2023/01/22 09:55:14;;;;;;;15.18;10.10;;;2.20;99.90;;;;;;4985855;28;20018;-63
2023/01/22 09:57:44;;;;;;;10.82;9.82;;;2.20;99.90;;;;;;4985845;28;20121;-63
2023/01/22 10:00:45;;;;;;;12.73;10.98;;;2.20;99.90;;;;;;4985881;28;20027;-64
2023/01/22 10:03:35;;;;;;;12.25;11.15;;;2.30;99.90;;;;;;4981411;28;20126;-63
2023/01/22 10:06:11;;;;;;;18.20;10.80;;;2.20;99.90;;;;;;4977236;28;20046;-63
2023/01/22 10:08:54;;;;;;;54.72;20.55;;;2.10;99.90;;;;;;4985639;28;20033;-65
2023/01/22 10:11:20;;;;;;;11.98;10.70;;;2.10;99.90;;;;;;4985794;28;20047;-61
2023/01/22 10:13:49;;;;;;;12.65;11.23;;;2.10;99.90;;;;;;4968962;28;20077;-63
2023/01/22 10:16:15;;;;;;;16.85;12.20;;;2.20;99.90;;;;;;4985598;28;20042;-63
2023/01/22 10:18:52;;;;;;;15.77;10.88;;;2.20;99.90;;;;;;4969113;28;20486;-64
2023/01/22 10:21:19;;;;;;;19.92;12.38;;;2.20;99.90;;;;;;4987671;28;20053;-63
2023/01/22 10:23:47;;;;;;;19.80;12.32;;;2.30;99.90;;;;;;5039102;28;20063;-62
2023/01/22 10:26:17;;;;;;;18.55;12.73;;;2.80;99.90;;;;;;5067358;28;20043;-61
2023/01/22 10:28:48;;;;;;;16.50;12.20;;;2.40;99.90;;;;;;5067110;28;20428;-61
2023/01/22 10:31:21;;;;;;;18.27;13.07;;;2.40;99.90;;;;;;5067123;28;20032;-64
2023/01/22 10:33:53;;;;;;;16.80;12.80;;;2.60;99.90;;;;;;5052730;28;20021;-63
2023/01/22 10:36:19;;;;;;;18.63;13.18;;;2.50;99.90;;;;;;5047741;28;20021;-64
2023/01/22 10:38:44;;;;;;;19.77;14.25;;;2.60;99.90;;;;;;5048142;28;20051;-64
2023/01/22 10:41:17;;;;;;;16.80;13.00;;;2.60;99.90;;;;;;5047125;28;20107;-63
2023/01/22 10:43:42;;;;;;;22.58;14.20;;;2.60;99.90;;;;;;5046903;28;20102;-65
2023/01/22 10:46:13;;;;;;;20.88;15.52;;;2.70;99.90;;;;;;5047971;28;20067;-63
2023/01/22 10:48:39;;;;;;;21.65;13.45;;;2.70;99.90;;;;;;5051145;28;20109;-63
2023/01/22 10:51:14;;;;;;;13.73;12.18;;;2.70;99.90;;;;;;5050857;28;20393;-63
2023/01/22 10:53:59;;;;;;;21.88;14.27;;;2.80;99.90;;;;;;5059372;28;20020;-63
2023/01/22 10:56:35;;;;;;;18.30;12.48;;;2.80;99.90;;;;;;5070621;28;20036;-64
2023/01/22 10:59:17;;;;;;;18.80;10.63;;;2.80;99.90;;;;;;5070423;28;20063;-64
2023/01/22 11:01:42;;;;;;;14.10;11.80;;;2.80;99.90;;;;;;5070386;28;20025;-63
2023/01/22 11:04:12;;;;;;;23.95;14.48;;;2.90;99.90;;;;;;5070075;28;20028;-65
2023/01/22 11:06:46;;;;;;;13.10;10.48;;;3.50;99.90;;;;;;5069573;28;20037;-64
2023/01/22 11:09:19;;;;;;;17.15;11.82;;;3.00;99.90;;;;;;5050432;28;20564;-65
2023/01/22 11:11:55;;;;;;;15.52;11.45;;;2.90;99.90;;;;;;5050050;28;20120;-62
2023/01/22 11:14:35;;;;;;;15.43;10.80;;;2.90;99.90;;;;;;5050050;28;20025;-62
2023/01/22 11:17:19;;;;;;;14.65;10.82;;;2.80;99.90;;;;;;5050454;28;20469;-64
2023/01/22 11:20:11;;;;;;;12.55;11.43;;;2.70;99.90;;;;;;5050426;28;20045;-64
2023/01/22 11:22:42;;;;;;;18.00;11.02;;;2.70;99.90;;;;;;5049869;28;20055;-63
2023/01/22 11:25:11;;;;;;;15.55;11.85;;;2.90;99.90;;;;;;5051283;28;20373;-63
2023/01/22 11:27:39;;;;;;;19.27;13.23;;;2.70;99.90;;;;;;5049957;28;20029;-63
2023/01/22 11:30:41;;;;;;;14.40;12.02;;;2.50;99.90;;;;;;5050066;28;20104;-61
2023/01/22 11:33:19;;;;;;;16.77;11.77;;;2.60;99.90;;;;;;5055021;28;20420;-65
2023/01/22 11:35:58;;;;;;;17.13;11.77;;;2.40;99.90;;;;;;5071927;28;20116;-64
2023/01/22 11:38:42;;;;;;;15.85;11.18;;;2.50;99.90;;;;;;5065336;28;20032;-65
2023/01/22 11:41:08;;;;;;;12.48;11.07;;;2.60;99.90;;;;;;5050888;28;20056;-64
2023/01/22 11:43:42;;;;;;;13.60;10.10;;;2.60;99.90;;;;;;5049848;28;20467;-63
2023/01/22 11:46:25;;;;;;;15.23;12.60;;;2.60;99.90;;;;;;5049668;28;20108;-62
2023/01/22 11:49:01;;;;;;;19.05;11.05;;;2.60;99.90;;;;;;5050171;28;20029;-63
2023/01/22 11:51:55;;;;;;;12.02;10.80;;;2.60;99.90;;;;;;5050151;28;20032;-62
2023/01/22 11:55:02;;;;;;;12.23;11.02;;;2.60;99.90;;;;;;5069378;28;20017;-64
2023/01/22 11:57:31;;;;;;;13.20;11.80;;;2.60;99.90;;;;;;5068911;28;20036;-63
2023/01/22 12:00:31;;;;;;;18.70;12.68;;;2.60;99.90;;;;;;5069580;28;20097;-63
2023/01/22 12:03:12;;;;;;;12.07;10.88;;;2.60;99.90;;;;;;5069451;28;20024;-64
2023/01/22 12:06:02;;;;;;;10.60;9.50;;;2.60;99.90;;;;;;5067217;28;20384;-63
2023/01/22 12:08:45;;;;;;;11.57;10.48;;;2.60;99.90;;;;;;5048986;28;20021;-64
2023/01/22 12:11:25;;;;;;;14.02;11.77;;;2.60;99.90;;;;;;5049401;28;20552;-63
2023/01/22 12:14:13;;;;;;;12.32;11.02;;;2.50;99.90;;;;;;5048283;28;20025;-62
2023/01/22 12:16:57;;;;;;;19.20;11.90;;;2.50;99.90;;;;;;5049312;28;20032;-64
2023/01/22 12:19:32;;;;;;;13.27;11.48;;;2.50;99.90;;;;;;5049041;28;20028;-64
2023/01/22 12:22:00;;;;;;;14.68;12.68;;;2.50;99.90;;;;;;5049472;28;20029;-64
2023/01/22 12:24:42;;;;;;;12.88;11.40;;;2.50;99.90;;;;;;5067733;28;20028;-63
2023/01/22 12:27:10;;;;;;;15.98;12.60;;;2.50;99.90;;;;;;5072918;28;20032;-61
2023/01/22 12:30:12;;;;;;;16.30;12.88;;;2.50;99.90;;;;;;5089063;28;20028;-64
2023/01/22 12:32:41;;;;;;;14.48;11.52;;;2.60;99.90;;;;;;5083486;28;20040;-64
2023/01/22 12:35:12;;;;;;;13.55;11.38;;;2.50;99.90;;;;;;5054131;28;20107;-65
2023/01/22 12:37:46;;;;;;;14.48;11.90;;;2.50;99.90;;;;;;5048773;28;20079;-67
2023/01/22 12:40:38;;;;;;;23.85;14.68;;;2.80;99.90;;;;;;5048929;28;20037;-65
2023/01/22 12:43:06;;;;;;;18.48;12.43;;;2.70;99.90;;;;;;5048607;28;20035;-65
2023/01/22 12:45:56;;;;;;;14.52;13.05;;;2.70;99.90;;;;;;5049005;28;20041;-63
2023/01/22 12:48:39;;;;;;;14.82;11.95;;;2.70;99.90;;;;;;5050283;28;20036;-63
2023/01/22 12:51:43;;;;;;;16.60;12.07;;;2.60;99.90;;;;;;5048728;28;20120;-63
2023/01/22 12:54:31;;;;;;;21.00;12.90;;;2.60;99.90;;;;;;5048019;28;20025;-64
2023/01/22 12:57:21;;;;;;;17.60;11.95;;;2.60;99.90;;;;;;5048516;28;20025;-63
2023/01/22 12:59:55;;;;;;;19.80;13.35;;;2.50;99.90;;;;;;5048439;28;20028;-61
2023/01/22 13:02:36;;;;;;;19.90;13.68;;;2.50;99.90;;;;;;5054682;28;20032;-63
2023/01/22 13:05:17;;;;;;;21.10;13.77;;;2.60;99.90;;;;;;5068849;28;20115;-64
2023/01/22 13:07:43;;;;;;;24.92;14.10;;;2.50;99.90;;;;;;5068338;28;20121;-64